ROMMA est une association bénévole à but non lucratif. Votre soutien est indispensable : ADHERER à ROMMA ou FAIRE un DON

Lans-en-Vercors - (38, Isère)

Vercors (990 m)   Longitude: 5° 33' 59'' E   Latitude: 45° 6' 3'' N Station partenaire n°80
 

Détail journalier du     <<     >>

Température Precipitation Humidité Vent Dir Rafale Dir. rafale Ensol.
Heure (°C) (mm) (%) (km/h) (km/h) (min)
01:00 3.30783NNE16N0
02:00 3.90683NE16SO0
03:00 8.204714SO44SO0
04:00 8.204226SSO48SSO0
05:00 7.904128SO53SO0
06:00 7.304320SO45SO0
07:00 6.304412SSO27SO0
08:00 8.403610SSO31SO0
09:00 9.40466NE19NE40
10:00 10.70493NE16NNE20
11:00 13.00424NE13NNE50
12:00 12.90385ENE24OSO40
13:00 14.30375SO24SO60
14:00 14.603011SO26SO60
15:00 14.703411SO29SO60
16:00 14.403910SO24SO50
17:00 13.70448SO18SO60
18:00 11.90505NNE18NNE40
19:00 7.80682NNE10NNE0
20:00 5.40761NNE6NNE0
21:00 3.608302NNE0
22:00 2.208502NNE0
23:00 1.608800NNE0
minuit -0.309100NNE0

Graphique du 16-03-2020

 

Serveur OMMA